Time;durP1;ratioP1;P1;durP2;ratioP2;P2;SDS_P1;SDS_P2;PMS_P1;PMS_P2;Temp;Humidity;BMP_temperature;BMP_pressure;BME280_temperature;BME280_humidity;BME280_pressure;Samples;Min_cycle;Max_cycle;Signal;HPM_P1;HPM_P2
2023/04/14 00:01:44;;;;;;;7.17;3.50;;;7.30;99.90;;;;;;5072843;28;20199;-61
2023/04/14 00:04:11;;;;;;;6.10;3.07;;;7.40;99.90;;;;;;5073429;28;20206;-61
2023/04/14 00:06:38;;;;;;;5.80;3.00;;;7.30;99.90;;;;;;5076849;28;20195;-61
2023/04/14 00:09:05;;;;;;;8.70;3.33;;;7.30;99.90;;;;;;5076823;28;20220;-61
2023/04/14 00:11:32;;;;;;;5.07;2.83;;;7.20;99.90;;;;;;5075975;28;20243;-61
2023/04/14 00:14:01;;;;;;;6.10;2.80;;;7.20;99.90;;;;;;5076980;28;20295;-61
2023/04/14 00:16:31;;;;;;;8.40;2.93;;;7.20;99.90;;;;;;5073888;28;20229;-61
2023/04/14 00:18:58;;;;;;;5.63;3.00;;;7.20;99.90;;;;;;5076730;28;20236;-61
2023/04/14 00:21:25;;;;;;;4.17;2.97;;;7.20;99.90;;;;;;5074659;28;20552;-61
2023/04/14 00:23:52;;;;;;;5.70;3.20;;;7.20;99.90;;;;;;5057475;28;20211;-61
2023/04/14 00:26:19;;;;;;;6.73;2.93;;;7.10;99.90;;;;;;5077905;28;20241;-61
2023/04/14 00:28:46;;;;;;;6.77;3.47;;;7.10;99.90;;;;;;5075088;28;20210;-61
2023/04/14 00:31:13;;;;;;;8.07;3.17;;;7.10;99.90;;;;;;5077196;28;20215;-61
2023/04/14 00:33:40;;;;;;;6.43;2.87;;;7.10;99.90;;;;;;5073613;28;21113;-61
2023/04/14 00:36:07;;;;;;;8.50;3.43;;;7.10;99.90;;;;;;5077288;28;20195;-61
2023/04/14 00:38:34;;;;;;;8.97;3.30;;;7.10;99.90;;;;;;5076208;28;20594;-61
2023/04/14 00:41:00;;;;;;;5.20;2.73;;;7.00;99.90;;;;;;5075289;28;20704;-61
2023/04/14 00:43:27;;;;;;;5.93;3.33;;;6.80;99.90;;;;;;5077387;28;20201;-62
2023/04/14 00:45:54;;;;;;;9.47;2.67;;;6.80;99.90;;;;;;5073338;28;20235;-61
2023/04/14 00:48:21;;;;;;;7.97;3.30;;;6.80;99.90;;;;;;5076674;28;20210;-61
2023/04/14 00:50:48;;;;;;;5.57;2.73;;;6.80;99.90;;;;;;5074013;28;20277;-61
2023/04/14 00:53:16;;;;;;;7.23;2.90;;;6.80;99.90;;;;;;5073754;28;20199;-61
2023/04/14 00:55:43;;;;;;;6.23;2.73;;;6.70;99.90;;;;;;5056326;28;20307;-63
2023/04/14 00:58:10;;;;;;;5.93;3.00;;;6.70;99.90;;;;;;5076468;28;20200;-63
2023/04/14 01:00:37;;;;;;;9.60;3.80;;;6.80;99.90;;;;;;5074026;28;20190;-61
2023/04/14 01:03:05;;;;;;;5.77;2.97;;;6.80;99.90;;;;;;5076360;28;20205;-61
2023/04/14 01:05:33;;;;;;;4.97;3.10;;;6.80;99.90;;;;;;5075694;28;21117;-61
2023/04/14 01:08:02;;;;;;;5.80;3.47;;;6.80;99.90;;;;;;5077548;28;20219;-61
2023/04/14 01:10:36;;;;;;;6.43;2.70;;;6.70;99.90;;;;;;5074630;28;20232;-60
2023/04/14 01:13:06;;;;;;;5.03;3.07;;;6.80;99.90;;;;;;5075354;28;22059;-59
2023/04/14 01:15:42;;;;;;;7.50;2.87;;;6.80;99.90;;;;;;5057961;28;20210;-59
2023/04/14 01:18:14;;;;;;;8.27;3.37;;;6.70;99.90;;;;;;5077826;28;20233;-60
2023/04/14 01:20:44;;;;;;;7.73;2.70;;;6.70;99.90;;;;;;5075165;28;20687;-60
2023/04/14 01:23:39;;;;;;;5.30;2.90;;;6.70;99.90;;;;;;5057790;28;20247;-59
2023/04/14 01:26:24;;;;;;;7.60;3.03;;;6.60;99.90;;;;;;5056870;28;20219;-59
2023/04/14 01:29:22;;;;;;;6.00;2.93;;;6.60;99.90;;;;;;5077617;28;20600;-59
2023/04/14 01:31:59;;;;;;;5.80;3.27;;;6.60;99.90;;;;;;5077034;28;20231;-59
2023/04/14 01:34:44;;;;;;;7.37;2.97;;;6.50;99.90;;;;;;5063486;28;20274;-60
2023/04/14 01:37:16;;;;;;;5.00;3.10;;;6.50;99.90;;;;;;5064606;28;20215;-60
2023/04/14 01:39:51;;;;;;;5.03;3.03;;;6.50;99.90;;;;;;5076498;28;20241;-59
2023/04/14 01:42:22;;;;;;;6.27;2.73;;;6.40;99.90;;;;;;5076297;28;20598;-60
2023/04/14 01:44:55;;;;;;;6.33;3.10;;;6.40;99.90;;;;;;5055717;28;20332;-61
2023/04/14 01:47:24;;;;;;;9.07;3.07;;;6.40;99.90;;;;;;5075867;28;20202;-61
2023/04/14 01:49:52;;;;;;;6.60;2.77;;;6.30;99.90;;;;;;5074749;28;20242;-59
2023/04/14 01:52:21;;;;;;;9.33;3.73;;;6.30;99.90;;;;;;5075055;28;20285;-59
2023/04/14 01:54:51;;;;;;;6.20;2.93;;;6.20;99.90;;;;;;5074292;28;21316;-60
2023/04/14 01:57:21;;;;;;;6.60;2.97;;;6.20;99.90;;;;;;5075824;28;20244;-59
2023/04/14 01:59:51;;;;;;;7.13;2.87;;;6.30;99.90;;;;;;5071238;28;20217;-59
2023/04/14 02:02:19;;;;;;;8.27;3.60;;;6.20;99.90;;;;;;5069578;28;20208;-59
2023/04/14 02:04:48;;;;;;;6.37;2.80;;;6.20;99.90;;;;;;5073559;28;20206;-60
2023/04/14 02:07:16;;;;;;;7.83;3.03;;;6.30;99.90;;;;;;5075696;28;20287;-60
2023/04/14 02:09:44;;;;;;;7.20;3.27;;;6.20;99.90;;;;;;5060869;28;20211;-59
2023/04/14 02:12:11;;;;;;;5.73;3.10;;;6.10;99.90;;;;;;5078583;28;20311;-59
2023/04/14 02:14:41;;;;;;;5.97;3.20;;;6.00;99.90;;;;;;5078487;28;20971;-59
2023/04/14 02:17:12;;;;;;;10.17;3.07;;;6.10;99.90;;;;;;5079580;28;20202;-59
2023/04/14 02:19:42;;;;;;;5.43;2.57;;;6.00;99.90;;;;;;5059227;28;20951;-59
2023/04/14 02:22:09;;;;;;;6.33;2.83;;;6.00;99.90;;;;;;5068738;28;20204;-60
2023/04/14 02:24:36;;;;;;;4.67;2.70;;;6.00;99.90;;;;;;5059729;28;20609;-60
2023/04/14 02:27:10;;;;;;;5.20;2.70;;;6.00;99.90;;;;;;5061945;28;20629;-59
2023/04/14 02:29:40;;;;;;;5.57;2.37;;;5.90;99.90;;;;;;5080181;28;20636;-60
2023/04/14 02:32:16;;;;;;;4.83;2.23;;;5.90;99.90;;;;;;5079306;28;20288;-59
2023/04/14 02:35:00;;;;;;;5.63;2.60;;;6.00;99.90;;;;;;5079317;28;20295;-59
2023/04/14 02:37:38;;;;;;;4.47;2.23;;;6.00;99.90;;;;;;5079225;28;20202;-60
2023/04/14 02:40:14;;;;;;;6.63;2.70;;;6.00;99.90;;;;;;5078169;28;20655;-59
2023/04/14 02:42:47;;;;;;;6.43;2.90;;;6.00;99.90;;;;;;5078768;28;20593;-59
2023/04/14 02:45:26;;;;;;;6.03;3.17;;;6.00;99.90;;;;;;5077256;28;20312;-60
2023/04/14 02:47:57;;;;;;;6.03;2.90;;;5.90;99.90;;;;;;5061338;28;20271;-59
2023/04/14 02:50:25;;;;;;;6.67;3.10;;;5.80;99.90;;;;;;5078140;28;20762;-60
2023/04/14 02:52:54;;;;;;;7.87;2.90;;;5.80;99.90;;;;;;5065641;28;20228;-64
2023/04/14 02:55:22;;;;;;;8.67;3.50;;;5.80;99.90;;;;;;5075371;28;20229;-60
2023/04/14 02:57:50;;;;;;;7.90;3.40;;;5.90;99.90;;;;;;5080066;28;20571;-60
2023/04/14 03:00:18;;;;;;;6.97;3.80;;;5.90;99.90;;;;;;5075701;28;20292;-60
2023/04/14 03:06:26;;;;;;;6.13;3.20;;;5.90;99.90;;;;;;5079508;28;20238;-59
2023/04/14 03:08:53;;;;;;;9.13;3.40;;;5.80;99.90;;;;;;5074885;28;20710;-59
2023/04/14 03:11:21;;;;;;;4.67;2.73;;;5.80;99.90;;;;;;5077106;28;20722;-62
2023/04/14 03:13:53;;;;;;;6.97;3.33;;;5.80;99.90;;;;;;5059656;28;20658;-60
2023/04/14 03:16:21;;;;;;;10.23;3.23;;;5.80;99.90;;;;;;5076990;28;20698;-60
2023/04/14 03:18:49;;;;;;;8.50;2.80;;;5.80;99.90;;;;;;5079981;28;20214;-59
2023/04/14 03:21:18;;;;;;;8.13;2.97;;;5.80;99.90;;;;;;5063425;28;20281;-59
2023/04/14 03:23:47;;;;;;;9.07;3.27;;;5.90;99.90;;;;;;5060568;28;20303;-60
2023/04/14 03:26:17;;;;;;;6.47;3.57;;;5.80;99.90;;;;;;5062361;28;20209;-59
2023/04/14 03:28:47;;;;;;;11.77;3.70;;;5.90;99.90;;;;;;5077385;28;20256;-61
2023/04/14 03:31:17;;;;;;;9.47;3.47;;;5.80;99.90;;;;;;5078658;28;20245;-60
2023/04/14 03:33:48;;;;;;;4.13;3.13;;;5.80;99.90;;;;;;5078653;28;20252;-60
2023/04/14 03:36:16;;;;;;;5.47;3.20;;;5.80;99.90;;;;;;5078300;28;20201;-60
2023/04/14 03:38:48;;;;;;;7.03;3.13;;;5.70;99.90;;;;;;5077391;28;20293;-60
2023/04/14 03:41:18;;;;;;;8.87;3.97;;;5.70;99.90;;;;;;5077122;28;20678;-61
2023/04/14 03:43:47;;;;;;;6.87;2.90;;;5.80;99.90;;;;;;5076377;28;20218;-61
2023/04/14 03:46:14;;;;;;;5.00;3.20;;;5.70;99.90;;;;;;5076483;28;20200;-59
2023/04/14 03:48:43;;;;;;;10.73;3.47;;;5.70;99.90;;;;;;5078898;28;20207;-59
2023/04/14 03:51:12;;;;;;;7.77;3.57;;;5.70;99.90;;;;;;5077051;28;20761;-65
2023/04/14 03:53:42;;;;;;;6.80;3.23;;;5.70;99.90;;;;;;5076331;28;20205;-59
2023/04/14 03:56:12;;;;;;;7.43;3.40;;;5.70;99.90;;;;;;5059424;28;20201;-59
2023/04/14 03:58:42;;;;;;;12.60;3.63;;;5.70;99.90;;;;;;5079583;28;20596;-59
2023/04/14 04:01:11;;;;;;;5.33;2.90;;;5.80;99.90;;;;;;5076316;28;20932;-59
2023/04/14 04:03:38;;;;;;;11.27;3.63;;;5.80;99.90;;;;;;5078981;28;20199;-60
2023/04/14 04:06:06;;;;;;;9.57;3.60;;;5.80;99.90;;;;;;5078538;28;20209;-60
2023/04/14 04:08:35;;;;;;;5.70;3.40;;;5.90;99.90;;;;;;5075689;28;20291;-60
2023/04/14 04:11:06;;;;;;;8.13;3.40;;;5.90;99.90;;;;;;5068820;28;20244;-59
2023/04/14 04:13:35;;;;;;;5.90;3.03;;;5.80;99.90;;;;;;5062705;28;20217;-60
2023/04/14 04:16:05;;;;;;;8.17;2.90;;;5.70;99.90;;;;;;5078689;28;20269;-60
2023/04/14 04:18:37;;;;;;;5.90;3.30;;;5.60;99.90;;;;;;5060491;28;20329;-59
2023/04/14 04:21:05;;;;;;;7.63;3.50;;;5.60;99.90;;;;;;5076515;28;20205;-59
2023/04/14 04:23:34;;;;;;;7.57;3.03;;;5.50;99.90;;;;;;5058644;28;20215;-60
2023/04/14 04:26:01;;;;;;;6.87;3.00;;;5.40;99.90;;;;;;5077867;28;20219;-59
2023/04/14 04:28:28;;;;;;;6.17;3.00;;;5.50;99.90;;;;;;5074824;28;20196;-60
2023/04/14 04:30:57;;;;;;;7.40;2.97;;;5.60;99.90;;;;;;5076140;28;20314;-60
2023/04/14 04:33:27;;;;;;;5.60;3.17;;;5.60;99.90;;;;;;5043301;28;20197;-60
2023/04/14 04:35:55;;;;;;;7.37;3.20;;;5.60;99.90;;;;;;5073763;28;20200;-62
2023/04/14 04:38:22;;;;;;;7.53;3.20;;;5.60;99.90;;;;;;5076302;28;21272;-60
2023/04/14 04:40:49;;;;;;;8.80;3.37;;;5.60;99.90;;;;;;5058257;28;20235;-60
2023/04/14 04:43:18;;;;;;;7.40;3.70;;;5.50;99.90;;;;;;5074844;28;20260;-59
2023/04/14 04:46:03;;;;;;;11.70;4.00;;;5.60;99.90;;;;;;5075540;28;20197;-59
2023/04/14 04:48:30;;;;;;;11.23;4.17;;;5.50;99.90;;;;;;5075213;28;20204;-59
2023/04/14 04:50:57;;;;;;;7.10;3.30;;;5.50;99.90;;;;;;5074679;28;20321;-60
2023/04/14 04:53:23;;;;;;;9.50;3.30;;;5.60;99.90;;;;;;5074810;28;20197;-59
2023/04/14 04:55:50;;;;;;;8.33;3.50;;;5.60;99.90;;;;;;5057335;28;20314;-60
2023/04/14 04:58:17;;;;;;;6.47;3.23;;;5.80;99.90;;;;;;5058435;28;20196;-60
2023/04/14 05:00:45;;;;;;;5.90;3.23;;;5.90;99.90;;;;;;5075725;28;20295;-59
2023/04/14 05:03:12;;;;;;;9.30;3.43;;;5.90;99.90;;;;;;5077365;28;20221;-61
2023/04/14 05:05:39;;;;;;;7.43;3.07;;;5.90;99.90;;;;;;5075423;28;20612;-61
2023/04/14 05:08:07;;;;;;;10.90;3.50;;;5.90;99.90;;;;;;5072437;28;20845;-62
2023/04/14 05:10:35;;;;;;;8.07;4.40;;;5.80;99.90;;;;;;5063357;28;20218;-61
2023/04/14 05:13:02;;;;;;;6.60;3.43;;;5.80;99.90;;;;;;5059996;28;20205;-61
2023/04/14 05:15:29;;;;;;;5.90;3.20;;;5.80;99.90;;;;;;5057898;28;20196;-61
2023/04/14 05:17:57;;;;;;;4.80;3.40;;;5.70;99.90;;;;;;5059435;28;20315;-61
2023/04/14 05:20:25;;;;;;;7.50;3.77;;;5.90;99.90;;;;;;5075680;28;20690;-62
2023/04/14 05:22:52;;;;;;;7.50;3.70;;;5.90;99.90;;;;;;5074838;28;20274;-61
2023/04/14 05:25:19;;;;;;;11.60;3.60;;;5.90;99.90;;;;;;5050753;28;21151;-61
2023/04/14 05:27:45;;;;;;;10.13;4.07;;;5.80;99.90;;;;;;5055596;28;20309;-62
2023/04/14 05:30:12;;;;;;;6.57;3.10;;;5.80;99.90;;;;;;5071542;28;20298;-62
2023/04/14 05:32:40;;;;;;;9.10;3.40;;;5.70;99.90;;;;;;5041011;28;20196;-62
2023/04/14 05:35:07;;;;;;;7.33;3.63;;;5.80;99.90;;;;;;5070121;28;20304;-62
2023/04/14 05:37:34;;;;;;;6.80;3.10;;;5.80;99.90;;;;;;5072893;28;20598;-59
2023/04/14 05:40:02;;;;;;;7.40;3.47;;;5.90;99.90;;;;;;5072212;28;20209;-60
2023/04/14 05:42:29;;;;;;;9.53;3.50;;;5.90;99.90;;;;;;5072807;28;20242;-59
2023/04/14 05:44:56;;;;;;;7.70;3.10;;;6.00;99.90;;;;;;5071087;28;20278;-59
2023/04/14 05:47:23;;;;;;;7.23;3.60;;;6.00;99.90;;;;;;5075814;28;20326;-60
2023/04/14 05:49:50;;;;;;;5.67;3.70;;;5.90;99.90;;;;;;5044829;28;20228;-59
2023/04/14 05:52:17;;;;;;;6.80;3.27;;;6.00;99.90;;;;;;5077593;28;20251;-60
2023/04/14 05:54:44;;;;;;;9.23;3.50;;;6.10;99.90;;;;;;5059164;28;20287;-60
2023/04/14 05:57:11;;;;;;;6.73;3.13;;;6.00;99.90;;;;;;5062322;28;20201;-59
2023/04/14 05:59:37;;;;;;;25.23;11.20;;;6.20;99.90;;;;;;5076370;28;20198;-60
2023/04/14 06:02:06;;;;;;;9.27;3.83;;;6.10;99.90;;;;;;5069018;28;20289;-59
2023/04/14 06:04:33;;;;;;;7.07;3.63;;;6.00;99.90;;;;;;5080162;28;20209;-59
2023/04/14 06:07:01;;;;;;;8.13;3.50;;;5.90;99.90;;;;;;5046360;28;20243;-59
2023/04/14 06:09:28;;;;;;;7.17;3.60;;;5.90;99.90;;;;;;5065160;28;20282;-60
2023/04/14 06:11:55;;;;;;;10.87;3.93;;;5.90;99.90;;;;;;5078234;28;20219;-59
2023/04/14 06:14:22;;;;;;;9.87;4.10;;;6.10;99.90;;;;;;5076617;28;20201;-61
2023/04/14 06:16:49;;;;;;;6.23;3.73;;;6.30;99.90;;;;;;5055661;28;20291;-60
2023/04/14 06:19:17;;;;;;;10.17;3.93;;;6.40;99.90;;;;;;5039545;28;20352;-61
2023/04/14 06:21:45;;;;;;;9.43;3.60;;;6.60;99.90;;;;;;5050551;28;20208;-60
2023/04/14 06:24:12;;;;;;;7.87;3.60;;;7.00;99.90;;;;;;4690183;28;9999919;-60
2023/04/14 06:26:39;;;;;;;7.37;3.10;;;7.20;99.90;;;;;;5050929;28;20584;-60
2023/04/14 06:29:06;;;;;;;10.47;3.53;;;7.30;99.90;;;;;;5072166;28;20206;-60
2023/04/14 06:31:34;;;;;;;7.67;3.17;;;7.40;99.90;;;;;;5072993;28;20581;-60
2023/04/14 06:34:01;;;;;;;5.23;4.00;;;7.50;99.90;;;;;;5045514;28;20191;-60
2023/04/14 06:36:28;;;;;;;7.97;3.53;;;7.60;99.90;;;;;;5074266;28;20204;-60
2023/04/14 06:38:56;;;;;;;5.67;3.30;;;7.70;99.90;;;;;;5053619;28;20660;-60
2023/04/14 06:41:23;;;;;;;7.57;3.27;;;8.00;99.90;;;;;;5072014;28;20240;-61
2023/04/14 06:43:50;;;;;;;10.23;3.33;;;7.90;99.90;;;;;;5071667;28;20238;-61
2023/04/14 06:46:17;;;;;;;8.10;4.00;;;8.00;99.90;;;;;;5068910;28;20246;-61
2023/04/14 06:48:44;;;;;;;5.40;3.30;;;8.30;99.90;;;;;;5074123;28;20202;-63
2023/04/14 06:51:12;;;;;;;7.47;3.50;;;8.30;99.90;;;;;;5046480;28;20248;-62
2023/04/14 06:53:39;;;;;;;7.40;3.23;;;8.60;99.90;;;;;;5052172;28;20741;-60
2023/04/14 06:56:07;;;;;;;8.20;3.70;;;8.70;99.90;;;;;;5052258;28;20951;-60
2023/04/14 06:58:33;;;;;;;7.90;3.80;;;8.60;99.90;;;;;;5072734;28;20227;-60
2023/04/14 07:01:02;;;;;;;7.60;3.60;;;8.90;99.90;;;;;;5072515;28;21042;-60
2023/04/14 07:03:29;;;;;;;5.83;3.03;;;9.20;99.90;;;;;;5056685;28;20216;-61
2023/04/14 07:06:09;;;;;;;5.43;2.63;;;9.60;99.90;;;;;;5064904;28;20608;-60
2023/04/14 07:08:37;;;;;;;8.03;3.13;;;9.50;99.90;;;;;;5069264;28;20300;-60
2023/04/14 07:11:07;;;;;;;6.20;2.77;;;9.40;99.90;;;;;;5073465;28;20226;-60
2023/04/14 07:13:35;;;;;;;8.47;3.10;;;9.70;99.90;;;;;;5075434;28;20685;-60
2023/04/14 07:16:02;;;;;;;4.37;2.93;;;9.90;99.90;;;;;;5070016;28;20409;-60
2023/04/14 07:18:30;;;;;;;7.97;3.00;;;9.90;99.90;;;;;;5075734;28;20231;-61
2023/04/14 07:20:58;;;;;;;5.37;2.30;;;10.20;99.90;;;;;;5055550;28;20894;-60
2023/04/14 07:23:26;;;;;;;5.63;2.63;;;9.90;99.90;;;;;;5073321;28;21115;-62
2023/04/14 07:25:54;;;;;;;5.77;2.60;;;10.10;99.90;;;;;;5072371;28;20220;-60
2023/04/14 07:28:23;;;;;;;9.53;2.73;;;10.40;99.90;;;;;;5075485;28;20221;-60
2023/04/14 07:30:51;;;;;;;3.90;2.53;;;10.70;99.90;;;;;;5071893;28;20214;-60
2023/04/14 07:33:19;;;;;;;6.23;2.60;;;10.60;99.90;;;;;;5075042;28;20227;-63
2023/04/14 07:35:46;;;;;;;5.10;2.10;;;11.00;99.90;;;;;;5072171;28;20201;-61
2023/04/14 07:38:27;;;;;;;4.97;2.57;;;11.10;99.90;;;;;;5072310;28;20249;-60
2023/04/14 07:40:54;;;;;;;6.73;2.47;;;10.90;99.90;;;;;;5053354;28;20632;-61
2023/04/14 07:43:22;;;;;;;8.50;2.90;;;11.20;99.90;;;;;;5072252;28;20214;-62
2023/04/14 07:45:48;;;;;;;8.50;2.90;;;11.20;99.90;;;;;;5074039;28;20202;-60
2023/04/14 07:48:18;;;;;;;3.33;2.40;;;11.30;99.90;;;;;;5042272;28;20201;-60
2023/04/14 07:50:47;;;;;;;5.57;2.70;;;11.30;99.90;;;;;;5070073;28;20883;-60
2023/04/14 07:53:14;;;;;;;7.77;2.70;;;11.60;99.90;;;;;;5053013;28;20213;-60
2023/04/14 07:55:41;;;;;;;4.83;3.13;;;11.60;99.90;;;;;;5052710;28;20229;-60
2023/04/14 07:58:07;;;;;;;7.50;2.77;;;11.40;99.90;;;;;;5076473;28;20325;-60
2023/04/14 08:00:34;;;;;;;6.70;3.17;;;11.40;99.90;;;;;;5070441;28;20260;-60
2023/04/14 08:03:01;;;;;;;8.83;4.17;;;11.20;99.90;;;;;;5073803;28;20301;-60
2023/04/14 08:05:29;;;;;;;4.90;2.83;;;11.50;99.90;;;;;;5038531;28;20636;-60
2023/04/14 08:07:56;;;;;;;7.90;2.43;;;11.80;99.90;;;;;;5071555;28;20191;-60
2023/04/14 08:10:23;;;;;;;3.43;1.90;;;11.90;99.90;;;;;;5070926;28;20241;-61
2023/04/14 08:12:50;;;;;;;8.67;2.57;;;11.80;99.90;;;;;;5052028;28;20670;-60
2023/04/14 08:15:17;;;;;;;2.63;1.60;;;11.70;99.90;;;;;;5071630;28;20226;-60
2023/04/14 08:17:44;;;;;;;8.57;2.33;;;12.00;99.90;;;;;;5034640;28;20285;-60
2023/04/14 08:20:11;;;;;;;5.30;2.10;;;12.30;99.90;;;;;;5070602;28;20202;-60
2023/04/14 08:22:38;;;;;;;4.47;2.03;;;12.40;99.90;;;;;;5067288;28;20205;-59
2023/04/14 08:25:05;;;;;;;5.30;1.90;;;12.50;99.90;;;;;;5070416;28;20204;-59
2023/04/14 08:27:32;;;;;;;2.23;1.40;;;12.50;99.90;;;;;;5058646;28;20288;-59
2023/04/14 08:29:59;;;;;;;2.57;1.60;;;12.60;99.90;;;;;;5069899;28;20198;-59
2023/04/14 08:32:26;;;;;;;5.87;1.80;;;12.90;99.90;;;;;;5070251;28;20215;-59
2023/04/14 08:34:54;;;;;;;5.80;1.87;;;13.30;99.90;;;;;;5069337;28;20206;-63
2023/04/14 08:37:41;;;;;;;3.93;1.80;;;13.00;99.90;;;;;;5070968;28;20207;-58
2023/04/14 08:40:09;;;;;;;6.67;1.87;;;13.00;99.90;;;;;;5052017;28;20197;-58
2023/04/14 08:42:36;;;;;;;2.10;1.63;;;13.20;99.90;;;;;;5033160;28;20245;-58
2023/04/14 08:45:04;;;;;;;4.20;1.80;;;13.10;99.90;;;;;;5041472;28;20219;-58
2023/04/14 08:47:34;;;;;;;2.47;1.53;;;12.90;99.90;;;;;;5030601;28;20667;-61
2023/04/14 08:50:08;;;;;;;8.20;1.60;;;12.90;99.90;;;;;;5031678;28;22033;-59
2023/04/14 08:52:38;;;;;;;8.23;1.83;;;12.90;99.90;;;;;;5035184;28;20224;-59
2023/04/14 08:55:06;;;;;;;3.87;1.80;;;13.20;99.90;;;;;;5029814;28;20216;-59
2023/04/14 08:57:34;;;;;;;2.80;1.63;;;13.50;99.90;;;;;;5029905;28;20285;-59
2023/04/14 09:00:03;;;;;;;5.50;1.70;;;13.70;99.90;;;;;;5026007;28;20232;-59
2023/04/14 09:02:34;;;;;;;4.40;1.40;;;13.80;99.90;;;;;;5011531;28;20296;-59
2023/04/14 09:05:02;;;;;;;4.27;2.00;;;13.80;99.90;;;;;;5033410;28;20282;-58
2023/04/14 09:07:30;;;;;;;4.80;1.87;;;13.80;99.90;;;;;;5027014;28;20222;-58
2023/04/14 09:09:57;;;;;;;2.60;1.60;;;13.90;99.90;;;;;;5026735;28;20207;-58
2023/04/14 09:12:26;;;;;;;3.27;1.30;;;14.10;99.90;;;;;;5028269;28;20247;-59
2023/04/14 09:14:55;;;;;;;4.17;1.43;;;14.10;99.90;;;;;;5033652;28;20202;-59
2023/04/14 09:17:25;;;;;;;2.73;1.40;;;14.40;99.90;;;;;;5035371;28;20209;-59
2023/04/14 09:19:52;;;;;;;3.17;1.30;;;14.50;99.90;;;;;;5032900;28;20258;-59
2023/04/14 09:22:39;;;;;;;4.80;1.57;;;14.10;99.90;;;;;;5030817;28;20212;-59
2023/04/14 09:25:08;;;;;;;5.50;1.30;;;14.10;99.90;;;;;;5030969;28;20553;-61
2023/04/14 09:27:36;;;;;;;4.77;1.50;;;14.40;99.90;;;;;;5028010;28;20292;-59
2023/04/14 09:30:04;;;;;;;3.60;1.57;;;14.40;99.90;;;;;;5030458;28;20853;-59
2023/04/14 09:32:31;;;;;;;3.37;1.53;;;14.30;99.90;;;;;;5047719;28;20314;-59
2023/04/14 09:34:58;;;;;;;1.77;0.97;;;14.20;99.90;;;;;;5019485;28;20201;-59
2023/04/14 09:37:25;;;;;;;2.97;1.00;;;13.50;99.90;;;;;;5036457;28;20206;-59
2023/04/14 09:39:54;;;;;;;2.83;1.27;;;14.30;99.90;;;;;;5031214;28;20294;-59
2023/04/14 09:42:39;;;;;;;3.23;1.20;;;14.50;99.90;;;;;;5030492;28;20327;-60
2023/04/14 09:45:07;;;;;;;4.83;1.20;;;14.50;99.90;;;;;;5030259;28;20666;-59
2023/04/14 09:47:34;;;;;;;4.07;1.17;;;14.20;99.90;;;;;;5027350;28;20192;-59
2023/04/14 09:50:03;;;;;;;3.40;1.00;;;14.20;99.90;;;;;;5040720;28;20210;-59
2023/04/14 09:52:40;;;;;;;4.40;1.30;;;14.00;99.90;;;;;;5029430;28;20231;-59
2023/04/14 09:55:15;;;;;;;3.23;1.67;;;13.90;99.90;;;;;;5028460;28;20593;-59
2023/04/14 09:57:46;;;;;;;2.67;1.30;;;14.10;99.90;;;;;;5031756;28;20201;-59
2023/04/14 10:00:17;;;;;;;2.93;1.20;;;13.80;99.90;;;;;;5028638;28;20197;-59
2023/04/14 10:02:54;;;;;;;3.77;1.10;;;13.80;99.90;;;;;;5033822;28;20216;-59
2023/04/14 10:05:28;;;;;;;5.33;1.47;;;13.90;99.90;;;;;;5030829;28;20206;-60
2023/04/14 10:08:04;;;;;;;4.77;1.27;;;13.60;99.90;;;;;;5027520;28;20212;-59
2023/04/14 10:10:31;;;;;;;3.10;1.53;;;13.40;99.90;;;;;;5034306;28;20214;-59
2023/04/14 10:12:59;;;;;;;4.13;1.20;;;13.30;99.90;;;;;;5042389;28;20805;-59
2023/04/14 10:15:27;;;;;;;4.23;1.40;;;13.80;99.90;;;;;;5026415;28;20230;-59
2023/04/14 10:17:55;;;;;;;2.87;1.10;;;14.00;99.90;;;;;;5044076;28;20224;-61
2023/04/14 10:20:23;;;;;;;4.10;1.20;;;14.10;99.90;;;;;;5029012;28;20286;-60
2023/04/14 10:22:51;;;;;;;2.17;1.03;;;14.50;99.90;;;;;;5043215;28;20202;-59
2023/04/14 10:25:19;;;;;;;2.23;0.90;;;14.10;99.90;;;;;;5029477;28;20207;-60
2023/04/14 10:27:47;;;;;;;6.50;1.30;;;14.10;99.90;;;;;;5029855;28;20203;-60
2023/04/14 10:30:15;;;;;;;2.13;1.23;;;14.50;99.90;;;;;;5028658;28;20654;-59
2023/04/14 10:32:46;;;;;;;3.07;1.20;;;14.50;99.90;;;;;;5025949;28;21159;-59
2023/04/14 10:35:17;;;;;;;2.17;0.90;;;14.60;99.90;;;;;;5027715;28;20287;-60
2023/04/14 10:37:50;;;;;;;5.00;1.40;;;14.20;99.90;;;;;;5034585;28;20721;-60
2023/04/14 10:40:17;;;;;;;4.53;1.47;;;14.00;99.90;;;;;;5027025;28;20209;-61
2023/04/14 10:42:52;;;;;;;2.13;1.20;;;13.80;99.90;;;;;;5071349;28;20235;-59
2023/04/14 10:45:19;;;;;;;2.77;1.17;;;13.80;99.90;;;;;;5066479;28;20210;-59
2023/04/14 10:47:46;;;;;;;4.60;1.10;;;13.70;99.90;;;;;;5071311;28;20288;-59
2023/04/14 10:50:16;;;;;;;2.47;1.17;;;13.70;99.90;;;;;;5071879;28;20218;-59
2023/04/14 10:52:57;;;;;;;4.23;1.17;;;13.60;99.90;;;;;;5071779;28;20214;-59
2023/04/14 10:55:26;;;;;;;4.23;1.20;;;13.80;99.90;;;;;;5074210;28;20213;-59
2023/04/14 10:58:04;;;;;;;5.30;1.30;;;13.80;99.90;;;;;;5071473;28;22430;-59
2023/04/14 11:00:36;;;;;;;2.90;1.40;;;13.90;99.90;;;;;;5069576;28;20202;-59
2023/04/14 11:03:09;;;;;;;5.23;1.50;;;13.90;99.90;;;;;;5068722;28;20205;-59
2023/04/14 11:05:47;;;;;;;2.77;1.30;;;13.90;99.90;;;;;;5073710;28;20201;-59
2023/04/14 11:08:25;;;;;;;2.67;1.20;;;14.10;99.90;;;;;;5070707;28;20273;-59
2023/04/14 11:11:05;;;;;;;4.73;1.40;;;14.50;99.90;;;;;;5061506;28;20561;-61
2023/04/14 11:13:33;;;;;;;3.77;1.27;;;14.30;99.90;;;;;;5075326;28;21064;-59
2023/04/14 11:16:04;;;;;;;2.37;1.13;;;14.50;99.90;;;;;;5050152;28;20295;-60
2023/04/14 11:18:37;;;;;;;3.43;1.00;;;14.30;99.90;;;;;;5055069;28;20220;-59
2023/04/14 11:21:09;;;;;;;5.23;1.20;;;14.20;99.90;;;;;;5074037;28;20344;-59
2023/04/14 11:23:37;;;;;;;2.63;1.07;;;14.80;99.90;;;;;;5073005;28;20653;-63
2023/04/14 11:26:05;;;;;;;3.67;1.17;;;14.90;99.90;;;;;;5073345;28;20645;-59
2023/04/14 11:28:34;;;;;;;2.83;1.23;;;15.00;99.90;;;;;;5071404;28;20194;-59
2023/04/14 11:31:04;;;;;;;3.30;1.50;;;14.80;99.90;;;;;;5072928;28;20191;-59
2023/04/14 11:33:33;;;;;;;2.47;1.27;;;14.40;99.90;;;;;;5059323;28;20214;-59
2023/04/14 11:36:01;;;;;;;2.80;0.97;;;14.20;99.90;;;;;;5075117;28;20203;-59
2023/04/14 11:38:29;;;;;;;4.53;1.57;;;14.10;99.90;;;;;;5050871;28;20646;-59
2023/04/14 11:40:56;;;;;;;2.23;1.00;;;14.80;99.90;;;;;;5072438;28;20321;-60
2023/04/14 11:43:23;;;;;;;4.17;1.10;;;15.50;99.90;;;;;;5073293;28;20209;-61
2023/04/14 11:45:51;;;;;;;3.23;1.10;;;15.20;99.90;;;;;;5072731;28;20313;-59
2023/04/14 11:48:19;;;;;;;3.07;1.30;;;15.40;99.90;;;;;;5072372;28;20742;-59
2023/04/14 11:50:47;;;;;;;4.93;1.23;;;16.00;99.90;;;;;;5073389;28;20261;-59
2023/04/14 11:53:16;;;;;;;2.40;1.47;;;15.90;99.90;;;;;;5074886;28;20570;-59
2023/04/14 11:55:45;;;;;;;2.10;0.77;;;16.00;99.90;;;;;;5070682;28;20497;-59
2023/04/14 11:58:14;;;;;;;2.80;1.00;;;15.70;99.90;;;;;;5073772;28;20285;-59
2023/04/14 12:00:42;;;;;;;5.17;1.10;;;15.90;99.90;;;;;;5054350;28;20201;-60
2023/04/14 12:03:09;;;;;;;2.00;0.83;;;16.10;99.90;;;;;;5057971;28;20208;-59
2023/04/14 12:05:36;;;;;;;3.63;1.20;;;15.60;99.90;;;;;;5044157;28;20717;-59
2023/04/14 12:08:08;;;;;;;3.43;1.60;;;15.10;99.90;;;;;;5052152;28;20201;-60
2023/04/14 12:10:41;;;;;;;2.90;0.90;;;14.80;99.90;;;;;;5073330;28;20208;-60
2023/04/14 12:13:10;;;;;;;3.00;1.17;;;15.50;99.90;;;;;;5056546;28;20259;-59
2023/04/14 12:15:39;;;;;;;4.43;1.47;;;15.90;99.90;;;;;;5071467;28;21352;-60
2023/04/14 12:18:08;;;;;;;2.70;1.57;;;16.30;99.90;;;;;;5074360;28;20230;-59
2023/04/14 12:20:46;;;;;;;5.90;1.77;;;16.80;99.90;;;;;;5075372;28;20253;-59
2023/04/14 12:23:14;;;;;;;3.37;1.10;;;17.10;99.90;;;;;;5055359;28;20211;-60
2023/04/14 12:25:41;;;;;;;4.47;1.17;;;16.60;99.90;;;;;;5069979;28;20310;-59
2023/04/14 12:28:08;;;;;;;2.57;1.17;;;16.50;99.90;;;;;;5054801;28;23175;-59
2023/04/14 12:30:36;;;;;;;2.10;1.20;;;15.60;99.90;;;;;;5074085;28;20202;-60
2023/04/14 12:33:10;;;;;;;2.97;0.90;;;15.70;99.90;;;;;;5074813;28;20652;-59
2023/04/14 12:35:39;;;;;;;2.27;1.03;;;15.80;99.90;;;;;;5070233;28;20201;-60
2023/04/14 12:38:11;;;;;;;5.43;1.97;;;16.20;99.90;;;;;;5066905;28;20193;-59
2023/04/14 12:40:44;;;;;;;3.30;1.20;;;16.00;99.90;;;;;;5071858;28;20206;-59
2023/04/14 12:43:12;;;;;;;2.67;1.17;;;16.00;99.90;;;;;;5074592;28;20241;-61
2023/04/14 12:45:45;;;;;;;4.20;1.10;;;15.90;99.90;;;;;;5037765;28;20206;-58
2023/04/14 12:48:13;;;;;;;3.03;1.10;;;16.40;99.90;;;;;;5072679;28;20214;-60
2023/04/14 12:50:39;;;;;;;4.57;1.83;;;16.50;99.90;;;;;;5072042;28;20583;-60
2023/04/14 12:53:27;;;;;;;3.47;1.17;;;16.80;99.90;;;;;;5072951;28;20598;-59
2023/04/14 12:56:09;;;;;;;3.20;1.30;;;17.00;99.90;;;;;;5064505;28;20249;-64
2023/04/14 12:58:37;;;;;;;4.50;1.33;;;16.80;99.90;;;;;;5070421;28;20330;-59
2023/04/14 13:01:09;;;;;;;6.93;2.93;;;17.00;99.90;;;;;;5069065;28;20206;-62
2023/04/14 13:03:50;;;;;;;3.60;1.17;;;17.20;99.90;;;;;;5022819;28;20635;-59
2023/04/14 13:06:20;;;;;;;2.13;0.97;;;17.40;99.90;;;;;;5057406;28;20273;-59
2023/04/14 13:08:51;;;;;;;1.27;0.90;;;17.20;99.90;;;;;;5069538;28;20588;-59